sensor_id;sensor_type;location;lat;lon;timestamp;pressure;altitude;pressure_sealevel;temperature;humidity
73101;BME280;61288;53.446;-2.266;2023-06-14T00:00:12;101658.66;;;16.79;57.41
73101;BME280;61288;53.446;-2.266;2023-06-14T00:13:42;101651.00;;;16.58;50.08
73101;BME280;61288;53.446;-2.266;2023-06-14T00:16:40;101648.13;;;16.63;46.63
73101;BME280;61288;53.446;-2.266;2023-06-14T00:20:13;101654.13;;;16.65;46.88
73101;BME280;61288;53.446;-2.266;2023-06-14T00:41:42;101652.13;;;16.17;55.20
73101;BME280;61288;53.446;-2.266;2023-06-14T00:45:12;101649.34;;;16.03;56.21
73101;BME280;61288;53.446;-2.266;2023-06-14T00:47:38;101650.66;;;15.94;55.35
73101;BME280;61288;53.446;-2.266;2023-06-14T00:50:12;101652.09;;;15.81;57.52
73101;BME280;61288;53.446;-2.266;2023-06-14T00:52:39;101642.94;;;15.72;57.77
73101;BME280;61288;53.446;-2.266;2023-06-14T00:55:05;101651.28;;;15.61;59.14
73101;BME280;61288;53.446;-2.266;2023-06-14T00:57:31;101658.56;;;15.54;60.00
73101;BME280;61288;53.446;-2.266;2023-06-14T00:59:57;101651.31;;;15.42;60.35
73101;BME280;61288;53.446;-2.266;2023-06-14T01:02:25;101654.16;;;15.36;61.13
73101;BME280;61288;53.446;-2.266;2023-06-14T01:04:51;101644.88;;;15.30;61.94
73101;BME280;61288;53.446;-2.266;2023-06-14T01:07:41;101650.47;;;15.21;61.05
73101;BME280;61288;53.446;-2.266;2023-06-14T01:13:36;101650.72;;;14.95;61.70
73101;BME280;61288;53.446;-2.266;2023-06-14T01:16:03;101655.25;;;14.92;62.73
73101;BME280;61288;53.446;-2.266;2023-06-14T01:18:35;101644.16;;;14.86;63.36
73101;BME280;61288;53.446;-2.266;2023-06-14T01:21:01;101645.72;;;14.70;62.58
73101;BME280;61288;53.446;-2.266;2023-06-14T01:23:36;101642.88;;;14.76;63.30
73101;BME280;61288;53.446;-2.266;2023-06-14T01:26:02;101647.94;;;14.79;63.58
73101;BME280;61288;53.446;-2.266;2023-06-14T01:28:31;101652.47;;;14.76;65.21
73101;BME280;61288;53.446;-2.266;2023-06-14T01:31:03;101652.66;;;14.71;63.99
73101;BME280;61288;53.446;-2.266;2023-06-14T01:33:31;101650.94;;;14.70;63.09
73101;BME280;61288;53.446;-2.266;2023-06-14T01:36:05;101660.41;;;14.72;63.59
73101;BME280;61288;53.446;-2.266;2023-06-14T01:38:32;101658.56;;;14.75;60.07
73101;BME280;61288;53.446;-2.266;2023-06-14T01:41:04;101665.28;;;14.80;57.56
73101;BME280;61288;53.446;-2.266;2023-06-14T01:43:30;101664.09;;;14.87;55.59
73101;BME280;61288;53.446;-2.266;2023-06-14T01:45:57;101673.56;;;14.90;55.85
73101;BME280;61288;53.446;-2.266;2023-06-14T01:48:23;101658.50;;;14.97;54.19
73101;BME280;61288;53.446;-2.266;2023-06-14T01:50:49;101655.75;;;15.00;54.32
73101;BME280;61288;53.446;-2.266;2023-06-14T01:53:21;101660.91;;;15.01;54.48
73101;BME280;61288;53.446;-2.266;2023-06-14T01:55:47;101652.28;;;14.99;53.63
73101;BME280;61288;53.446;-2.266;2023-06-14T01:58:14;101657.47;;;15.01;52.92
73101;BME280;61288;53.446;-2.266;2023-06-14T02:00:46;101647.84;;;15.01;52.66
73101;BME280;61288;53.446;-2.266;2023-06-14T02:03:12;101650.41;;;15.03;52.26
73101;BME280;61288;53.446;-2.266;2023-06-14T02:05:38;101653.16;;;15.00;53.42
73101;BME280;61288;53.446;-2.266;2023-06-14T02:08:05;101661.13;;;14.97;54.37
73101;BME280;61288;53.446;-2.266;2023-06-14T02:10:31;101658.19;;;14.84;56.61
73101;BME280;61288;53.446;-2.266;2023-06-14T02:12:56;101656.88;;;14.73;57.76
73101;BME280;61288;53.446;-2.266;2023-06-14T02:15:22;101660.75;;;14.63;60.08
73101;BME280;61288;53.446;-2.266;2023-06-14T02:17:54;101667.41;;;14.50;61.17
73101;BME280;61288;53.446;-2.266;2023-06-14T02:20:19;101660.88;;;14.39;61.08
73101;BME280;61288;53.446;-2.266;2023-06-14T02:22:45;101657.94;;;14.26;63.50
73101;BME280;61288;53.446;-2.266;2023-06-14T02:25:10;101667.75;;;14.20;64.17
73101;BME280;61288;53.446;-2.266;2023-06-14T02:27:36;101662.13;;;14.08;64.76
73101;BME280;61288;53.446;-2.266;2023-06-14T02:30:02;101668.59;;;13.98;65.88
73101;BME280;61288;53.446;-2.266;2023-06-14T02:32:27;101667.56;;;13.80;66.67
73101;BME280;61288;53.446;-2.266;2023-06-14T02:34:53;101661.81;;;13.71;67.20
73101;BME280;61288;53.446;-2.266;2023-06-14T02:37:20;101660.16;;;13.69;67.23
73101;BME280;61288;53.446;-2.266;2023-06-14T02:39:45;101659.56;;;13.62;69.04
73101;BME280;61288;53.446;-2.266;2023-06-14T02:42:11;101661.44;;;13.58;69.39
73101;BME280;61288;53.446;-2.266;2023-06-14T02:44:42;101656.38;;;13.54;71.33
73101;BME280;61288;53.446;-2.266;2023-06-14T02:47:08;101665.06;;;13.54;70.16
73101;BME280;61288;53.446;-2.266;2023-06-14T02:49:34;101657.72;;;13.40;71.67
73101;BME280;61288;53.446;-2.266;2023-06-14T02:52:00;101657.28;;;13.29;72.36
73101;BME280;61288;53.446;-2.266;2023-06-14T02:54:26;101661.91;;;13.21;73.10
73101;BME280;61288;53.446;-2.266;2023-06-14T02:57:03;101664.81;;;13.13;74.29
73101;BME280;61288;53.446;-2.266;2023-06-14T03:03:30;101667.00;;;13.00;75.50
73101;BME280;61288;53.446;-2.266;2023-06-14T03:05:59;101663.84;;;12.90;75.46
73101;BME280;61288;53.446;-2.266;2023-06-14T03:13:03;101669.88;;;12.91;73.47
73101;BME280;61288;53.446;-2.266;2023-06-14T03:27:39;101674.31;;;12.89;77.71
73101;BME280;61288;53.446;-2.266;2023-06-14T03:38:06;101678.81;;;13.09;73.75
73101;BME280;61288;53.446;-2.266;2023-06-14T03:40:54;101682.59;;;13.24;71.63
73101;BME280;61288;53.446;-2.266;2023-06-14T03:44:16;101681.19;;;13.39;70.25
73101;BME280;61288;53.446;-2.266;2023-06-14T03:50:33;101690.81;;;13.62;68.42
73101;BME280;61288;53.446;-2.266;2023-06-14T03:52:59;101681.97;;;13.66;68.02
73101;BME280;61288;53.446;-2.266;2023-06-14T03:55:32;101687.88;;;13.71;67.72
73101;BME280;61288;53.446;-2.266;2023-06-14T04:05:13;101683.56;;;13.70;72.52
73101;BME280;61288;53.446;-2.266;2023-06-14T04:12:04;101687.94;;;13.46;74.96
73101;BME280;61288;53.446;-2.266;2023-06-14T04:18:49;101687.38;;;13.36;77.21
73101;BME280;61288;53.446;-2.266;2023-06-14T04:21:21;101687.28;;;13.39;77.96
73101;BME280;61288;53.446;-2.266;2023-06-14T04:23:56;101687.44;;;13.35;78.31
73101;BME280;61288;53.446;-2.266;2023-06-14T04:27:05;101690.81;;;13.37;78.67
73101;BME280;61288;53.446;-2.266;2023-06-14T04:30:33;101691.84;;;13.33;79.79
73101;BME280;61288;53.446;-2.266;2023-06-14T04:33:29;101687.28;;;13.39;80.16
73101;BME280;61288;53.446;-2.266;2023-06-14T04:39:24;101688.91;;;13.42;82.28
73101;BME280;61288;53.446;-2.266;2023-06-14T04:41:53;101692.41;;;13.41;81.93
73101;BME280;61288;53.446;-2.266;2023-06-14T04:44:26;101695.78;;;13.45;83.18
73101;BME280;61288;53.446;-2.266;2023-06-14T04:47:23;101707.00;;;13.47;83.44
73101;BME280;61288;53.446;-2.266;2023-06-14T04:50:25;101708.41;;;13.55;78.85
73101;BME280;61288;53.446;-2.266;2023-06-14T04:56:09;101706.19;;;13.92;69.28
73101;BME280;61288;53.446;-2.266;2023-06-14T04:58:35;101709.34;;;14.00;71.47
73101;BME280;61288;53.446;-2.266;2023-06-14T05:01:20;101709.25;;;14.02;72.11
73101;BME280;61288;53.446;-2.266;2023-06-14T05:03:53;101712.38;;;14.12;69.37
73101;BME280;61288;53.446;-2.266;2023-06-14T05:06:19;101704.25;;;14.20;67.97
73101;BME280;61288;53.446;-2.266;2023-06-14T05:08:44;101704.00;;;14.26;67.20
73101;BME280;61288;53.446;-2.266;2023-06-14T05:11:22;101706.34;;;14.32;65.97
73101;BME280;61288;53.446;-2.266;2023-06-14T05:13:49;101708.72;;;14.38;64.20
73101;BME280;61288;53.446;-2.266;2023-06-14T05:16:41;101707.63;;;14.44;64.39
73101;BME280;61288;53.446;-2.266;2023-06-14T05:19:11;101709.94;;;14.52;63.32
73101;BME280;61288;53.446;-2.266;2023-06-14T05:21:37;101710.44;;;14.60;62.57
73101;BME280;61288;53.446;-2.266;2023-06-14T05:24:25;101710.97;;;14.68;61.03
73101;BME280;61288;53.446;-2.266;2023-06-14T05:26:56;101706.53;;;14.72;61.31
73101;BME280;61288;53.446;-2.266;2023-06-14T05:29:22;101712.47;;;14.76;60.98
73101;BME280;61288;53.446;-2.266;2023-06-14T05:32:02;101708.81;;;14.80;60.83
73101;BME280;61288;53.446;-2.266;2023-06-14T05:34:50;101713.03;;;14.82;61.40
73101;BME280;61288;53.446;-2.266;2023-06-14T05:37:53;101705.22;;;14.82;61.62
73101;BME280;61288;53.446;-2.266;2023-06-14T05:40:21;101713.81;;;14.84;61.81
73101;BME280;61288;53.446;-2.266;2023-06-14T05:42:47;101710.38;;;14.84;62.69
73101;BME280;61288;53.446;-2.266;2023-06-14T05:45:12;101716.44;;;14.84;61.79
73101;BME280;61288;53.446;-2.266;2023-06-14T05:47:45;101711.16;;;14.86;61.61
73101;BME280;61288;53.446;-2.266;2023-06-14T05:50:11;101712.91;;;14.85;61.82
73101;BME280;61288;53.446;-2.266;2023-06-14T05:52:36;101714.47;;;14.90;61.89
73101;BME280;61288;53.446;-2.266;2023-06-14T05:55:03;101702.00;;;14.96;63.05
73101;BME280;61288;53.446;-2.266;2023-06-14T05:57:29;101708.47;;;15.08;63.24
73101;BME280;61288;53.446;-2.266;2023-06-14T06:00:06;101713.28;;;15.18;62.90
73101;BME280;61288;53.446;-2.266;2023-06-14T06:02:46;101713.00;;;15.24;62.66
73101;BME280;61288;53.446;-2.266;2023-06-14T06:05:13;101712.47;;;15.36;61.73
73101;BME280;61288;53.446;-2.266;2023-06-14T06:07:39;101712.25;;;15.41;61.11
73101;BME280;61288;53.446;-2.266;2023-06-14T06:10:13;101717.41;;;15.42;62.19
73101;BME280;61288;53.446;-2.266;2023-06-14T06:12:38;101715.59;;;15.44;62.14
73101;BME280;61288;53.446;-2.266;2023-06-14T06:15:04;101716.44;;;15.45;62.61
73101;BME280;61288;53.446;-2.266;2023-06-14T06:17:30;101714.81;;;15.42;62.62
73101;BME280;61288;53.446;-2.266;2023-06-14T06:19:56;101707.84;;;15.43;62.60
73101;BME280;61288;53.446;-2.266;2023-06-14T06:22:21;101703.59;;;15.40;62.38
73101;BME280;61288;53.446;-2.266;2023-06-14T06:24:47;101706.16;;;15.42;62.22
73101;BME280;61288;53.446;-2.266;2023-06-14T06:27:21;101699.13;;;15.42;62.64
73101;BME280;61288;53.446;-2.266;2023-06-14T06:29:47;101700.69;;;15.47;62.71
73101;BME280;61288;53.446;-2.266;2023-06-14T06:32:30;101705.72;;;15.51;62.59
73101;BME280;61288;53.446;-2.266;2023-06-14T06:34:57;101708.03;;;15.57;62.83
73101;BME280;61288;53.446;-2.266;2023-06-14T06:37:29;101706.94;;;15.63;61.98
73101;BME280;61288;53.446;-2.266;2023-06-14T06:39:58;101707.41;;;15.71;61.57
73101;BME280;61288;53.446;-2.266;2023-06-14T06:42:32;101704.66;;;15.74;60.81
73101;BME280;61288;53.446;-2.266;2023-06-14T06:44:57;101707.06;;;15.79;60.78
73101;BME280;61288;53.446;-2.266;2023-06-14T06:47:23;101709.31;;;15.87;60.42
73101;BME280;61288;53.446;-2.266;2023-06-14T06:49:50;101709.91;;;15.94;60.95
73101;BME280;61288;53.446;-2.266;2023-06-14T06:52:46;101710.22;;;16.05;60.95
73101;BME280;61288;53.446;-2.266;2023-06-14T06:55:11;101709.97;;;16.11;60.27
73101;BME280;61288;53.446;-2.266;2023-06-14T06:57:38;101709.41;;;16.22;60.02
73101;BME280;61288;53.446;-2.266;2023-06-14T07:00:03;101707.31;;;16.30;59.82
73101;BME280;61288;53.446;-2.266;2023-06-14T07:02:34;101711.84;;;16.44;60.93
73101;BME280;61288;53.446;-2.266;2023-06-14T07:05:03;101707.84;;;16.55;59.78
73101;BME280;61288;53.446;-2.266;2023-06-14T07:07:35;101710.56;;;16.71;59.74
73101;BME280;61288;53.446;-2.266;2023-06-14T07:10:05;101709.09;;;16.83;59.86
73101;BME280;61288;53.446;-2.266;2023-06-14T07:13:00;101703.97;;;16.97;59.56
73101;BME280;61288;53.446;-2.266;2023-06-14T07:15:26;101705.09;;;17.11;58.53
73101;BME280;61288;53.446;-2.266;2023-06-14T07:17:52;101699.59;;;17.15;57.85
73101;BME280;61288;53.446;-2.266;2023-06-14T07:20:18;101708.66;;;17.26;57.66
73101;BME280;61288;53.446;-2.266;2023-06-14T07:22:43;101713.41;;;17.35;56.96
73101;BME280;61288;53.446;-2.266;2023-06-14T07:25:19;101716.28;;;17.46;57.56
73101;BME280;61288;53.446;-2.266;2023-06-14T07:27:53;101706.34;;;17.53;57.04
73101;BME280;61288;53.446;-2.266;2023-06-14T07:30:19;101709.38;;;17.61;56.78
73101;BME280;61288;53.446;-2.266;2023-06-14T07:32:44;101710.06;;;17.65;56.89
73101;BME280;61288;53.446;-2.266;2023-06-14T07:35:21;101703.72;;;17.69;56.45
73101;BME280;61288;53.446;-2.266;2023-06-14T07:37:47;101712.19;;;17.74;57.88
73101;BME280;61288;53.446;-2.266;2023-06-14T07:40:20;101714.22;;;17.85;57.58
73101;BME280;61288;53.446;-2.266;2023-06-14T07:42:46;101721.16;;;17.86;57.44
73101;BME280;61288;53.446;-2.266;2023-06-14T07:45:17;101712.94;;;17.93;57.24
73101;BME280;61288;53.446;-2.266;2023-06-14T07:47:43;101719.22;;;18.06;57.39
73101;BME280;61288;53.446;-2.266;2023-06-14T07:50:09;101722.59;;;18.24;56.63
73101;BME280;61288;53.446;-2.266;2023-06-14T07:52:35;101713.22;;;18.51;55.06
73101;BME280;61288;53.446;-2.266;2023-06-14T07:55:03;101713.47;;;18.76;53.96
73101;BME280;61288;53.446;-2.266;2023-06-14T07:57:37;101708.59;;;18.85;52.68
73101;BME280;61288;53.446;-2.266;2023-06-14T08:00:03;101710.09;;;18.89;54.03
73101;BME280;61288;53.446;-2.266;2023-06-14T08:02:58;101705.13;;;18.84;56.51
73101;BME280;61288;53.446;-2.266;2023-06-14T08:05:46;101706.34;;;18.79;55.07
73101;BME280;61288;53.446;-2.266;2023-06-14T08:08:15;101709.16;;;18.90;54.67
73101;BME280;61288;53.446;-2.266;2023-06-14T08:10:48;101715.69;;;18.99;53.34
73101;BME280;61288;53.446;-2.266;2023-06-14T08:13:14;101716.84;;;18.93;52.45
73101;BME280;61288;53.446;-2.266;2023-06-14T08:15:56;101714.16;;;18.95;53.90
73101;BME280;61288;53.446;-2.266;2023-06-14T08:18:35;101711.19;;;19.01;53.02
73101;BME280;61288;53.446;-2.266;2023-06-14T08:21:01;101715.41;;;19.03;50.89
73101;BME280;61288;53.446;-2.266;2023-06-14T08:23:28;101711.66;;;19.08;50.48
73101;BME280;61288;53.446;-2.266;2023-06-14T08:25:57;101714.66;;;19.16;52.26
73101;BME280;61288;53.446;-2.266;2023-06-14T08:28:24;101722.25;;;19.20;49.74
73101;BME280;61288;53.446;-2.266;2023-06-14T08:30:49;101722.72;;;19.27;49.40
73101;BME280;61288;53.446;-2.266;2023-06-14T08:33:15;101718.97;;;19.31;47.92
73101;BME280;61288;53.446;-2.266;2023-06-14T08:35:40;101719.53;;;19.37;47.08
73101;BME280;61288;53.446;-2.266;2023-06-14T08:38:06;101720.09;;;19.42;48.00
73101;BME280;61288;53.446;-2.266;2023-06-14T08:40:36;101722.34;;;19.48;46.62
73101;BME280;61288;53.446;-2.266;2023-06-14T08:43:03;101723.56;;;19.57;45.97
73101;BME280;61288;53.446;-2.266;2023-06-14T08:45:28;101726.94;;;19.59;45.55
73101;BME280;61288;53.446;-2.266;2023-06-14T08:47:55;101722.44;;;19.61;45.69
73101;BME280;61288;53.446;-2.266;2023-06-14T08:50:25;101721.28;;;19.65;46.57
73101;BME280;61288;53.446;-2.266;2023-06-14T08:52:54;101719.69;;;19.77;46.80
73101;BME280;61288;53.446;-2.266;2023-06-14T08:55:23;101715.44;;;19.89;46.25
73101;BME280;61288;53.446;-2.266;2023-06-14T08:57:53;101719.44;;;20.09;45.58
73101;BME280;61288;53.446;-2.266;2023-06-14T09:00:20;101723.59;;;20.26;45.55
73101;BME280;61288;53.446;-2.266;2023-06-14T09:02:46;101720.63;;;20.31;45.36
73101;BME280;61288;53.446;-2.266;2023-06-14T09:05:12;101711.75;;;20.46;44.96
73101;BME280;61288;53.446;-2.266;2023-06-14T09:07:43;101709.53;;;20.53;44.71
73101;BME280;61288;53.446;-2.266;2023-06-14T09:10:11;101720.63;;;20.58;43.65
73101;BME280;61288;53.446;-2.266;2023-06-14T09:12:37;101721.88;;;20.66;43.61
73101;BME280;61288;53.446;-2.266;2023-06-14T09:15:04;101720.19;;;20.64;43.11
73101;BME280;61288;53.446;-2.266;2023-06-14T09:17:40;101720.44;;;20.74;43.30
73101;BME280;61288;53.446;-2.266;2023-06-14T09:20:08;101709.28;;;20.84;43.11
73101;BME280;61288;53.446;-2.266;2023-06-14T09:22:39;101708.44;;;20.96;44.17
73101;BME280;61288;53.446;-2.266;2023-06-14T09:25:05;101708.88;;;21.03;43.67
73101;BME280;61288;53.446;-2.266;2023-06-14T09:27:32;101710.75;;;21.14;43.69
73101;BME280;61288;53.446;-2.266;2023-06-14T09:29:58;101715.50;;;21.09;43.54
73101;BME280;61288;53.446;-2.266;2023-06-14T09:32:24;101710.53;;;21.17;43.92
73101;BME280;61288;53.446;-2.266;2023-06-14T09:34:50;101712.22;;;21.31;43.45
73101;BME280;61288;53.446;-2.266;2023-06-14T09:37:29;101711.78;;;21.24;43.88
73101;BME280;61288;53.446;-2.266;2023-06-14T09:39:55;101719.75;;;21.48;44.47
73101;BME280;61288;53.446;-2.266;2023-06-14T09:42:20;101711.09;;;21.59;44.70
73101;BME280;61288;53.446;-2.266;2023-06-14T09:44:49;101710.53;;;21.80;45.63
73101;BME280;61288;53.446;-2.266;2023-06-14T09:47:15;101713.13;;;21.93;44.70
73101;BME280;61288;53.446;-2.266;2023-06-14T09:49:42;101716.13;;;22.00;44.13
73101;BME280;61288;53.446;-2.266;2023-06-14T09:52:14;101718.69;;;22.01;43.68
73101;BME280;61288;53.446;-2.266;2023-06-14T09:54:42;101716.75;;;22.03;45.97
73101;BME280;61288;53.446;-2.266;2023-06-14T09:57:23;101704.97;;;22.20;45.26
73101;BME280;61288;53.446;-2.266;2023-06-14T09:59:57;101710.63;;;22.27;44.23
73101;BME280;61288;53.446;-2.266;2023-06-14T10:02:32;101718.19;;;22.32;44.21
73101;BME280;61288;53.446;-2.266;2023-06-14T10:05:06;101716.16;;;22.24;43.04
73101;BME280;61288;53.446;-2.266;2023-06-14T10:07:56;101722.50;;;22.33;41.65
73101;BME280;61288;53.446;-2.266;2023-06-14T10:10:20;101710.00;;;22.48;42.25
73101;BME280;61288;53.446;-2.266;2023-06-14T10:12:46;101715.09;;;22.74;41.61
73101;BME280;61288;53.446;-2.266;2023-06-14T10:15:18;101709.63;;;22.88;41.80
73101;BME280;61288;53.446;-2.266;2023-06-14T10:17:47;101711.16;;;23.02;43.15
73101;BME280;61288;53.446;-2.266;2023-06-14T10:20:25;101708.16;;;23.18;44.71
73101;BME280;61288;53.446;-2.266;2023-06-14T10:23:00;101706.38;;;23.30;41.92
73101;BME280;61288;53.446;-2.266;2023-06-14T10:25:29;101708.91;;;23.43;40.98
73101;BME280;61288;53.446;-2.266;2023-06-14T10:28:16;101708.22;;;23.30;41.39
73101;BME280;61288;53.446;-2.266;2023-06-14T10:33:30;101713.63;;;23.40;40.04
73101;BME280;61288;53.446;-2.266;2023-06-14T10:36:29;101698.31;;;23.55;43.12
73101;BME280;61288;53.446;-2.266;2023-06-14T10:39:16;101704.19;;;23.58;40.12
73101;BME280;61288;53.446;-2.266;2023-06-14T10:41:51;101702.66;;;23.56;41.07
73101;BME280;61288;53.446;-2.266;2023-06-14T10:46:46;101701.50;;;23.81;39.77
73101;BME280;61288;53.446;-2.266;2023-06-14T10:49:16;101699.53;;;24.06;40.68
73101;BME280;61288;53.446;-2.266;2023-06-14T10:51:51;101694.56;;;24.34;40.92
73101;BME280;61288;53.446;-2.266;2023-06-14T10:54:21;101691.59;;;24.48;38.53
73101;BME280;61288;53.446;-2.266;2023-06-14T10:56:47;101700.50;;;24.47;37.68
73101;BME280;61288;53.446;-2.266;2023-06-14T10:59:17;101708.13;;;24.41;37.82
73101;BME280;61288;53.446;-2.266;2023-06-14T11:04:20;101702.25;;;24.79;37.46
73101;BME280;61288;53.446;-2.266;2023-06-14T11:06:50;101709.88;;;24.73;36.38
73101;BME280;61288;53.446;-2.266;2023-06-14T11:12:41;101692.97;;;24.95;39.10
73101;BME280;61288;53.446;-2.266;2023-06-14T11:15:11;101695.56;;;25.16;38.25
73101;BME280;61288;53.446;-2.266;2023-06-14T11:17:36;101706.13;;;25.37;37.02
73101;BME280;61288;53.446;-2.266;2023-06-14T11:20:12;101695.28;;;25.50;37.59
73101;BME280;61288;53.446;-2.266;2023-06-14T11:22:44;101695.56;;;25.47;35.09
73101;BME280;61288;53.446;-2.266;2023-06-14T11:25:12;101696.06;;;25.41;34.93
73101;BME280;61288;53.446;-2.266;2023-06-14T11:27:38;101685.25;;;25.64;38.11
73101;BME280;61288;53.446;-2.266;2023-06-14T11:30:07;101683.31;;;25.76;37.82
73101;BME280;61288;53.446;-2.266;2023-06-14T11:32:33;101683.31;;;25.76;34.45
73101;BME280;61288;53.446;-2.266;2023-06-14T11:34:58;101682.34;;;25.77;36.52
73101;BME280;61288;53.446;-2.266;2023-06-14T11:37:27;101678.53;;;25.50;33.76
73101;BME280;61288;53.446;-2.266;2023-06-14T11:40:00;101675.88;;;25.50;37.16
73101;BME280;61288;53.446;-2.266;2023-06-14T11:42:29;101683.34;;;25.35;32.80
73101;BME280;61288;53.446;-2.266;2023-06-14T11:44:55;101673.28;;;25.29;33.24
73101;BME280;61288;53.446;-2.266;2023-06-14T11:47:21;101664.44;;;25.08;32.83
73101;BME280;61288;53.446;-2.266;2023-06-14T11:49:47;101678.44;;;25.20;33.57
73101;BME280;61288;53.446;-2.266;2023-06-14T11:52:13;101683.22;;;25.36;35.26
73101;BME280;61288;53.446;-2.266;2023-06-14T11:54:39;101677.19;;;25.24;33.86
73101;BME280;61288;53.446;-2.266;2023-06-14T11:57:08;101681.94;;;25.31;33.81
73101;BME280;61288;53.446;-2.266;2023-06-14T11:59:38;101676.22;;;25.35;32.66
73101;BME280;61288;53.446;-2.266;2023-06-14T12:02:05;101672.41;;;25.18;33.63
73101;BME280;61288;53.446;-2.266;2023-06-14T12:04:31;101672.44;;;25.28;34.07
73101;BME280;61288;53.446;-2.266;2023-06-14T12:06:57;101672.88;;;25.43;34.33
73101;BME280;61288;53.446;-2.266;2023-06-14T12:09:23;101670.34;;;25.22;33.16
73101;BME280;61288;53.446;-2.266;2023-06-14T12:11:51;101671.84;;;25.56;34.65
73101;BME280;61288;53.446;-2.266;2023-06-14T12:14:29;101669.91;;;25.58;32.17
73101;BME280;61288;53.446;-2.266;2023-06-14T12:17:04;101675.34;;;25.66;33.28
73101;BME280;61288;53.446;-2.266;2023-06-14T12:19:31;101673.53;;;25.76;33.02
73101;BME280;61288;53.446;-2.266;2023-06-14T12:21:59;101674.31;;;25.47;31.55
73101;BME280;61288;53.446;-2.266;2023-06-14T12:24:29;101663.41;;;25.41;31.74
73101;BME280;61288;53.446;-2.266;2023-06-14T12:26:57;101670.69;;;25.48;32.54
73101;BME280;61288;53.446;-2.266;2023-06-14T12:29:25;101665.72;;;25.75;34.53
73101;BME280;61288;53.446;-2.266;2023-06-14T12:31:50;101672.13;;;26.02;36.94
73101;BME280;61288;53.446;-2.266;2023-06-14T12:34:16;101666.81;;;26.12;32.69
73101;BME280;61288;53.446;-2.266;2023-06-14T12:36:42;101665.97;;;26.11;31.98
73101;BME280;61288;53.446;-2.266;2023-06-14T12:39:10;101667.25;;;26.17;32.40
73101;BME280;61288;53.446;-2.266;2023-06-14T12:41:36;101670.47;;;26.30;32.17
73101;BME280;61288;53.446;-2.266;2023-06-14T12:44:02;101667.34;;;26.45;31.21
73101;BME280;61288;53.446;-2.266;2023-06-14T12:46:30;101662.06;;;25.95;30.73
73101;BME280;61288;53.446;-2.266;2023-06-14T12:48:56;101666.13;;;25.80;31.38
73101;BME280;61288;53.446;-2.266;2023-06-14T12:51:22;101666.97;;;25.90;32.47
73101;BME280;61288;53.446;-2.266;2023-06-14T12:53:47;101668.47;;;26.13;32.51
73101;BME280;61288;53.446;-2.266;2023-06-14T12:56:14;101667.25;;;26.17;32.33
73101;BME280;61288;53.446;-2.266;2023-06-14T12:58:41;101669.78;;;26.18;31.18
73101;BME280;61288;53.446;-2.266;2023-06-14T13:01:07;101669.06;;;26.26;31.47
73101;BME280;61288;53.446;-2.266;2023-06-14T13:03:33;101667.50;;;26.14;29.61
73101;BME280;61288;53.446;-2.266;2023-06-14T13:06:00;101669.38;;;26.23;33.58
73101;BME280;61288;53.446;-2.266;2023-06-14T13:08:26;101671.56;;;26.28;31.44
73101;BME280;61288;53.446;-2.266;2023-06-14T13:10:51;101676.63;;;26.21;30.75
73101;BME280;61288;53.446;-2.266;2023-06-14T13:13:17;101669.88;;;26.36;34.86
73101;BME280;61288;53.446;-2.266;2023-06-14T13:15:42;101671.25;;;26.50;31.22
73101;BME280;61288;53.446;-2.266;2023-06-14T13:18:09;101666.03;;;26.59;33.04
73101;BME280;61288;53.446;-2.266;2023-06-14T13:20:36;101665.94;;;26.50;29.44
73101;BME280;61288;53.446;-2.266;2023-06-14T13:23:01;101663.41;;;26.49;30.98
73101;BME280;61288;53.446;-2.266;2023-06-14T13:25:28;101666.53;;;26.44;31.10
73101;BME280;61288;53.446;-2.266;2023-06-14T13:27:54;101661.72;;;26.48;31.45
73101;BME280;61288;53.446;-2.266;2023-06-14T13:30:19;101652.44;;;26.72;34.91
73101;BME280;61288;53.446;-2.266;2023-06-14T13:32:45;101652.53;;;26.80;32.71
73101;BME280;61288;53.446;-2.266;2023-06-14T13:35:10;101656.94;;;26.71;30.79
73101;BME280;61288;53.446;-2.266;2023-06-14T13:37:36;101653.16;;;26.64;30.85
73101;BME280;61288;53.446;-2.266;2023-06-14T13:40:01;101658.22;;;26.57;30.57
73101;BME280;61288;53.446;-2.266;2023-06-14T13:42:27;101654.22;;;26.43;29.67
73101;BME280;61288;53.446;-2.266;2023-06-14T13:44:54;101661.31;;;26.52;30.60
73101;BME280;61288;53.446;-2.266;2023-06-14T13:47:19;101666.44;;;26.64;31.50
73101;BME280;61288;53.446;-2.266;2023-06-14T13:49:45;101667.88;;;26.58;29.94
73101;BME280;61288;53.446;-2.266;2023-06-14T13:52:10;101659.91;;;26.58;30.46
73101;BME280;61288;53.446;-2.266;2023-06-14T13:54:36;101665.09;;;26.50;30.14
73101;BME280;61288;53.446;-2.266;2023-06-14T13:57:02;101657.19;;;26.30;29.85
73101;BME280;61288;53.446;-2.266;2023-06-14T13:59:28;101657.28;;;26.48;32.97
73101;BME280;61288;53.446;-2.266;2023-06-14T14:01:53;101656.72;;;26.45;31.91
73101;BME280;61288;53.446;-2.266;2023-06-14T14:04:19;101651.97;;;26.48;31.55
73101;BME280;61288;53.446;-2.266;2023-06-14T14:06:44;101658.34;;;26.65;33.15
73101;BME280;61288;53.446;-2.266;2023-06-14T14:09:10;101653.28;;;26.72;31.56
73101;BME280;61288;53.446;-2.266;2023-06-14T14:11:36;101644.56;;;26.80;30.87
73101;BME280;61288;53.446;-2.266;2023-06-14T14:14:02;101646.41;;;26.79;30.26
73101;BME280;61288;53.446;-2.266;2023-06-14T14:16:27;101650.03;;;26.88;30.86
73101;BME280;61288;53.446;-2.266;2023-06-14T14:18:53;101653.97;;;26.74;29.00
73101;BME280;61288;53.446;-2.266;2023-06-14T14:21:18;101652.84;;;26.77;29.82
73101;BME280;61288;53.446;-2.266;2023-06-14T14:23:44;101648.50;;;26.76;29.22
73101;BME280;61288;53.446;-2.266;2023-06-14T14:26:10;101648.16;;;26.99;31.49
73101;BME280;61288;53.446;-2.266;2023-06-14T14:28:36;101645.72;;;26.77;29.72
73101;BME280;61288;53.446;-2.266;2023-06-14T14:31:01;101638.72;;;26.86;34.80
73101;BME280;61288;53.446;-2.266;2023-06-14T14:33:27;101647.31;;;26.98;31.46
73101;BME280;61288;53.446;-2.266;2023-06-14T14:35:52;101639.50;;;26.96;31.27